createdAt,value
2017-10-30T00:02:24.221Z,92.90
2017-10-30T00:04:52.020Z,93.10
2017-10-30T00:07:20.673Z,92.90
2017-10-30T00:09:48.540Z,92.80
2017-10-30T00:12:16.409Z,92.70
2017-10-30T00:14:44.274Z,92.70
2017-10-30T00:17:12.141Z,92.60
2017-10-30T00:19:40.010Z,92.40
2017-10-30T00:22:07.876Z,92.30
2017-10-30T00:24:35.744Z,92.50
2017-10-30T00:27:03.617Z,92.60
2017-10-30T00:29:31.484Z,92.60
2017-10-30T00:31:59.345Z,92.70
2017-10-30T00:34:27.213Z,92.50
2017-10-30T00:36:55.080Z,92.40
2017-10-30T00:39:22.947Z,92.30
2017-10-30T00:41:50.844Z,92.30
2017-10-30T00:44:18.683Z,92.40
2017-10-30T00:46:46.550Z,92.60
2017-10-30T00:49:14.417Z,92.50
2017-10-30T00:51:42.284Z,92.60
2017-10-30T00:54:10.152Z,92.40
2017-10-30T00:56:38.021Z,92.40
2017-10-30T00:59:05.887Z,92.50
2017-10-30T01:01:33.757Z,92.60
2017-10-30T01:04:01.621Z,92.60
2017-10-30T01:06:29.489Z,92.70
2017-10-30T01:08:57.355Z,92.70
2017-10-30T01:11:25.224Z,92.60
2017-10-30T01:13:53.091Z,92.50
2017-10-30T01:16:20.957Z,92.70
2017-10-30T01:18:48.825Z,92.70
2017-10-30T01:21:16.691Z,92.80
2017-10-30T01:23:44.559Z,93.10
2017-10-30T01:26:12.437Z,92.90
2017-10-30T01:28:40.293Z,93.10
2017-10-30T01:31:08.166Z,93.40
2017-10-30T01:33:36.034Z,93.30
2017-10-30T01:36:03.899Z,93.30
2017-10-30T01:38:31.765Z,93.30
2017-10-30T01:40:59.636Z,93.30
2017-10-30T01:43:27.502Z,93.20
2017-10-30T01:45:55.368Z,93.20
2017-10-30T01:48:23.237Z,93.20
2017-10-30T01:50:51.103Z,93.30
2017-10-30T01:53:18.968Z,93.10
2017-10-30T01:55:46.834Z,93.10
2017-10-30T01:58:14.702Z,93.10
2017-10-30T02:00:42.569Z,93.00
2017-10-30T02:03:10.436Z,93.00
2017-10-30T02:05:38.303Z,93.10
2017-10-30T02:08:06.173Z,93.10
2017-10-30T02:10:34.038Z,93.30
2017-10-30T02:13:01.906Z,93.30
2017-10-30T02:15:29.772Z,93.30
2017-10-30T02:17:57.641Z,93.10
2017-10-30T02:20:25.610Z,93.20
2017-10-30T02:22:53.477Z,93.30
2017-10-30T02:25:21.372Z,93.30
2017-10-30T02:27:49.212Z,93.20
2017-10-30T02:30:17.079Z,93.20
2017-10-30T02:32:45.050Z,93.20
2017-10-30T02:35:12.916Z,93.20
2017-10-30T02:37:40.784Z,93.10
2017-10-30T02:40:08.754Z,93.40
2017-10-30T02:42:36.621Z,93.10
2017-10-30T02:45:04.489Z,93.10
2017-10-30T02:47:32.458Z,93.10
2017-10-30T02:50:00.328Z,93.00
2017-10-30T02:52:28.193Z,93.10
2017-10-30T02:54:56.059Z,92.70
2017-10-30T02:57:23.926Z,92.80
2017-10-30T02:59:51.795Z,93.00
2017-10-30T03:02:19.661Z,93.10
2017-10-30T03:04:47.536Z,93.10
2017-10-30T03:07:15.399Z,92.90
2017-10-30T03:09:43.272Z,93.10
2017-10-30T03:12:11.134Z,93.10
2017-10-30T03:14:38.997Z,92.90
2017-10-30T03:17:06.967Z,93.00
2017-10-30T03:19:34.938Z,93.20
2017-10-30T03:22:02.813Z,93.60
2017-10-30T03:24:30.702Z,93.60
2017-10-30T03:26:59.358Z,94.00
2017-10-30T03:29:27.227Z,93.80
2017-10-30T03:31:55.124Z,93.80
2017-10-30T03:34:22.961Z,93.80
2017-10-30T03:36:50.828Z,93.70
2017-10-30T03:39:18.696Z,93.50
2017-10-30T03:41:46.563Z,93.40
2017-10-30T03:44:14.429Z,93.30
2017-10-30T03:46:42.297Z,93.30
2017-10-30T03:49:10.164Z,93.40
2017-10-30T03:51:38.032Z,93.50
2017-10-30T03:54:05.901Z,93.40
2017-10-30T03:56:33.766Z,93.30
2017-10-30T03:59:01.635Z,93.40
2017-10-30T04:01:29.501Z,93.30
2017-10-30T04:03:57.367Z,93.50
2017-10-30T04:06:25.309Z,94.10
2017-10-30T04:08:53.206Z,94.40
2017-10-30T04:11:21.073Z,94.00
2017-10-30T04:13:48.940Z,93.40
2017-10-30T04:16:16.808Z,93.40
2017-10-30T04:18:44.674Z,93.40
2017-10-30T04:21:12.543Z,93.20
2017-10-30T04:23:40.412Z,93.00
2017-10-30T04:26:08.277Z,93.00
2017-10-30T04:28:36.144Z,93.20
2017-10-30T04:31:04.012Z,93.10
2017-10-30T04:33:31.878Z,92.90
2017-10-30T04:35:59.747Z,93.20
2017-10-30T04:38:27.627Z,93.40
2017-10-30T04:40:55.481Z,93.40
2017-10-30T04:43:23.347Z,93.40
2017-10-30T04:45:51.216Z,93.60
2017-10-30T04:48:19.091Z,93.80
2017-10-30T04:50:46.959Z,93.90
2017-10-30T04:53:14.819Z,93.90
2017-10-30T04:55:42.685Z,94.00
2017-10-30T04:58:10.557Z,94.10
2017-10-30T05:00:38.423Z,94.00
2017-10-30T05:03:06.291Z,94.10
2017-10-30T05:05:34.156Z,94.20
2017-10-30T05:08:02.022Z,94.40
2017-10-30T05:10:29.888Z,94.20
2017-10-30T05:12:57.756Z,94.30
2017-10-30T05:15:26.135Z,94.30
2017-10-30T05:17:54.002Z,94.10
2017-10-30T05:20:22.165Z,94.20
2017-10-30T05:22:50.045Z,94.20
2017-10-30T05:25:17.912Z,94.20
2017-10-30T05:27:45.779Z,94.20
2017-10-30T05:30:13.544Z,94.10
2017-10-30T05:32:41.411Z,94.20
2017-10-30T05:35:09.277Z,94.10
2017-10-30T05:37:37.081Z,94.00
2017-10-30T05:40:05.582Z,94.10
2017-10-30T05:42:33.393Z,94.10
2017-10-30T05:45:01.259Z,94.10
2017-10-30T05:47:29.128Z,94.00
2017-10-30T05:49:56.995Z,93.90
2017-10-30T05:52:24.862Z,93.80
2017-10-30T05:54:52.728Z,93.90
2017-10-30T05:57:20.595Z,94.00
2017-10-30T05:59:48.464Z,94.00
2017-10-30T06:02:16.330Z,94.00
2017-10-30T06:04:44.198Z,94.10
2017-10-30T06:07:12.065Z,94.00
2017-10-30T06:09:39.933Z,94.20
2017-10-30T06:12:07.800Z,94.10
2017-10-30T06:14:35.667Z,94.10
2017-10-30T06:17:03.535Z,94.20
2017-10-30T06:19:31.402Z,94.40
2017-10-30T06:21:59.269Z,94.60
2017-10-30T06:24:27.136Z,94.60
2017-10-30T06:26:55.004Z,94.60
2017-10-30T06:29:22.877Z,94.50
2017-10-30T06:31:50.738Z,94.70
2017-10-30T06:34:18.605Z,94.50
2017-10-30T06:36:46.474Z,94.60
2017-10-30T06:39:14.340Z,94.60
2017-10-30T06:41:42.207Z,94.50
2017-10-30T06:44:10.075Z,94.50
2017-10-30T06:46:37.782Z,94.50
2017-10-30T06:49:06.424Z,94.40
2017-10-30T06:51:34.297Z,94.30
2017-10-30T06:54:02.162Z,94.30
2017-10-30T06:56:30.029Z,94.30
2017-10-30T06:58:57.893Z,94.20
2017-10-30T07:01:25.760Z,94.00
2017-10-30T07:03:53.627Z,94.20
2017-10-30T07:06:21.494Z,94.00
2017-10-30T07:08:49.362Z,93.80
2017-10-30T07:11:17.230Z,93.70
2017-10-30T07:13:45.100Z,93.60
2017-10-30T07:16:12.964Z,93.40
2017-10-30T07:18:40.831Z,93.10
2017-10-30T07:21:08.699Z,93.10
2017-10-30T07:23:36.567Z,93.10
2017-10-30T07:26:04.433Z,92.80
2017-10-30T07:28:32.301Z,92.80
2017-10-30T07:31:00.171Z,92.90
2017-10-30T07:33:28.035Z,92.70
2017-10-30T07:35:55.902Z,92.70
2017-10-30T07:38:23.770Z,92.40
2017-10-30T07:40:51.637Z,92.20
2017-10-30T07:43:19.505Z,92.00
2017-10-30T07:45:47.371Z,92.00
2017-10-30T07:48:15.239Z,92.10
2017-10-30T07:50:43.106Z,92.00
2017-10-30T07:53:10.973Z,91.90
2017-10-30T07:55:38.841Z,91.80
2017-10-30T07:58:06.709Z,91.30
2017-10-30T08:00:34.577Z,91.30
2017-10-30T08:03:02.443Z,91.20
2017-10-30T08:05:30.315Z,90.80
2017-10-30T08:07:58.181Z,91.00
2017-10-30T08:10:26.047Z,91.20
2017-10-30T08:12:54.015Z,91.00
2017-10-30T08:15:21.887Z,90.50
2017-10-30T08:17:49.753Z,90.90
2017-10-30T08:20:17.622Z,90.50
2017-10-30T08:22:45.492Z,90.30
2017-10-30T08:25:13.352Z,90.10
2017-10-30T08:27:41.218Z,90.00
2017-10-30T08:30:09.189Z,89.20
2017-10-30T08:32:37.055Z,90.30
2017-10-30T08:35:04.928Z,89.50
2017-10-30T08:37:32.790Z,89.60
2017-10-30T08:40:00.658Z,88.00
2017-10-30T08:42:28.524Z,87.30
2017-10-30T08:44:56.392Z,88.80
2017-10-30T08:47:24.259Z,87.80
2017-10-30T08:49:52.126Z,88.10
2017-10-30T08:52:19.994Z,88.90
2017-10-30T08:54:47.861Z,86.80
2017-10-30T08:57:15.728Z,87.80
2017-10-30T08:59:43.596Z,88.20
2017-10-30T09:02:11.463Z,88.30
2017-10-30T09:04:39.332Z,88.20
2017-10-30T09:07:07.197Z,88.20
2017-10-30T09:09:35.065Z,88.40
2017-10-30T09:12:02.932Z,89.10
2017-10-30T09:14:30.799Z,87.30
2017-10-30T09:16:58.667Z,87.80
2017-10-30T09:19:26.534Z,86.20
2017-10-30T09:21:54.406Z,86.30
2017-10-30T09:24:22.376Z,86.20
2017-10-30T09:26:50.239Z,85.20
2017-10-30T09:29:18.107Z,86.00
2017-10-30T09:31:45.965Z,86.30
2017-10-30T09:34:13.840Z,81.00
2017-10-30T09:36:41.707Z,83.00
2017-10-30T09:39:09.576Z,80.90
2017-10-30T09:41:37.443Z,81.30
2017-10-30T09:44:05.317Z,81.00
2017-10-30T09:46:33.180Z,80.80
2017-10-30T09:49:01.044Z,81.20
2017-10-30T09:51:28.843Z,80.40
2017-10-30T09:53:57.495Z,79.40
2017-10-30T09:56:25.362Z,79.40
2017-10-30T09:58:53.157Z,78.90
2017-10-30T10:01:20.995Z,79.60
2017-10-30T10:03:48.964Z,80.80
2017-10-30T10:06:16.832Z,79.20
2017-10-30T10:08:44.803Z,79.80
2017-10-30T10:11:12.772Z,79.00
2017-10-30T10:13:40.638Z,77.70
2017-10-30T10:16:08.611Z,76.80
2017-10-30T10:18:36.477Z,74.70
2017-10-30T10:21:04.343Z,75.70
2017-10-30T10:23:32.211Z,76.30
2017-10-30T10:26:00.078Z,76.00
2017-10-30T10:28:27.944Z,75.20
2017-10-30T10:30:55.811Z,75.80
2017-10-30T10:33:23.687Z,75.80
2017-10-30T10:35:51.650Z,73.90
2017-10-30T10:38:19.517Z,71.90
2017-10-30T10:40:47.383Z,72.00
2017-10-30T10:43:15.355Z,71.60
2017-10-30T10:45:43.221Z,70.90
2017-10-30T10:48:11.087Z,71.20
2017-10-30T10:50:38.955Z,69.40
2017-10-30T10:53:06.822Z,69.20
2017-10-30T10:55:34.697Z,67.70
2017-10-30T10:58:02.557Z,65.80
2017-10-30T11:00:30.425Z,67.50
2017-10-30T11:02:58.292Z,65.30
2017-10-30T11:05:26.158Z,63.90
2017-10-30T11:07:54.027Z,62.10
2017-10-30T11:10:21.894Z,60.40
2017-10-30T11:12:49.762Z,60.90
2017-10-30T11:15:17.628Z,58.00
2017-10-30T11:17:45.496Z,59.10
2017-10-30T11:20:13.364Z,56.40
2017-10-30T11:22:41.236Z,55.30
2017-10-30T11:25:09.102Z,52.30
2017-10-30T11:27:36.973Z,52.50
2017-10-30T11:30:04.833Z,49.60
2017-10-30T11:32:32.700Z,46.00
2017-10-30T11:35:00.574Z,43.80
2017-10-30T11:37:28.437Z,45.30
2017-10-30T11:39:56.306Z,43.80
2017-10-30T11:42:24.170Z,42.70
2017-10-30T11:44:52.036Z,43.70
2017-10-30T11:47:19.908Z,44.70
2017-10-30T11:49:47.770Z,48.20
2017-10-30T11:52:15.638Z,49.10
2017-10-30T11:54:43.505Z,48.70
2017-10-30T11:57:11.373Z,48.60
2017-10-30T11:59:39.241Z,49.70
2017-10-30T12:02:07.824Z,49.90
2017-10-30T12:04:35.692Z,49.80
2017-10-30T12:07:03.558Z,51.90
2017-10-30T12:09:31.426Z,50.20
2017-10-30T12:11:59.292Z,51.70
2017-10-30T12:14:27.160Z,52.50
2017-10-30T12:16:55.027Z,53.50
2017-10-30T12:19:22.896Z,53.00
2017-10-30T12:21:50.763Z,51.80
2017-10-30T12:24:18.630Z,51.40
2017-10-30T12:26:46.498Z,52.50
2017-10-30T12:29:14.363Z,54.00
2017-10-30T12:31:42.233Z,54.00
2017-10-30T12:34:10.099Z,54.80
2017-10-30T12:36:37.965Z,55.70
2017-10-30T12:39:05.833Z,58.10
2017-10-30T12:41:33.701Z,56.20
2017-10-30T12:44:01.567Z,56.10
2017-10-30T12:46:29.436Z,55.60
2017-10-30T12:48:57.303Z,54.40
2017-10-30T12:51:25.171Z,53.50
2017-10-30T12:53:53.039Z,53.90
2017-10-30T12:56:20.904Z,53.80
2017-10-30T12:58:48.772Z,55.30
2017-10-30T13:01:16.640Z,56.70
2017-10-30T13:03:44.510Z,58.00
2017-10-30T13:06:12.374Z,57.70
2017-10-30T13:08:40.242Z,58.70
2017-10-30T13:11:08.040Z,58.00
2017-10-30T13:13:36.697Z,58.50
2017-10-30T13:16:04.560Z,58.50
2017-10-30T13:18:32.428Z,57.10
2017-10-30T13:21:00.301Z,59.80
2017-10-30T13:23:28.162Z,58.90
2017-10-30T13:25:56.030Z,59.00
2017-10-30T13:28:23.897Z,57.60
2017-10-30T13:30:51.764Z,57.70
2017-10-30T13:33:19.632Z,59.10
2017-10-30T13:35:47.498Z,59.80
2017-10-30T13:38:15.367Z,61.30
2017-10-30T13:40:43.235Z,59.70
2017-10-30T13:43:11.101Z,60.90
2017-10-30T13:45:38.968Z,62.30
2017-10-30T13:48:06.836Z,63.20
2017-10-30T13:50:34.703Z,63.50
2017-10-30T13:53:02.570Z,63.60
2017-10-30T13:55:30.438Z,63.00
2017-10-30T13:57:58.307Z,63.80
2017-10-30T14:00:26.172Z,65.00
2017-10-30T14:02:54.039Z,65.40
2017-10-30T14:05:21.906Z,64.70
2017-10-30T14:07:49.773Z,66.00
2017-10-30T14:10:17.642Z,65.80
2017-10-30T14:12:45.509Z,65.20
2017-10-30T14:15:13.375Z,65.90
2017-10-30T14:17:41.243Z,67.40
2017-10-30T14:20:09.111Z,68.30
2017-10-30T14:22:36.978Z,68.40
2017-10-30T14:25:04.845Z,67.80
2017-10-30T14:27:32.713Z,68.20
2017-10-30T14:30:00.580Z,69.00
2017-10-30T14:32:28.447Z,69.70
2017-10-30T14:34:56.315Z,70.00
2017-10-30T14:37:24.182Z,69.50
2017-10-30T14:39:52.049Z,70.10
2017-10-30T14:42:19.922Z,69.10
2017-10-30T14:44:47.790Z,69.00
2017-10-30T14:47:15.651Z,69.10
2017-10-30T14:49:43.519Z,68.60
2017-10-30T14:52:11.389Z,68.60
2017-10-30T14:54:39.256Z,69.20
2017-10-30T14:57:07.126Z,69.90
2017-10-30T14:59:34.989Z,71.50
2017-10-30T15:02:02.857Z,71.60
2017-10-30T15:04:30.722Z,70.60
2017-10-30T15:06:58.589Z,69.70
2017-10-30T15:09:26.458Z,70.80
2017-10-30T15:11:54.324Z,71.30
2017-10-30T15:14:22.191Z,71.30
2017-10-30T15:16:50.059Z,71.10
2017-10-30T15:19:17.926Z,71.40
2017-10-30T15:21:45.793Z,71.20
2017-10-30T15:24:13.660Z,71.40
2017-10-30T15:26:41.528Z,73.10
2017-10-30T15:29:09.396Z,71.80
2017-10-30T15:31:37.262Z,69.70
2017-10-30T15:34:05.131Z,70.40
2017-10-30T15:36:32.997Z,70.20
2017-10-30T15:39:00.944Z,71.30
2017-10-30T15:41:28.834Z,72.50
2017-10-30T15:43:57.410Z,72.70
2017-10-30T15:46:26.105Z,72.60
2017-10-30T15:48:53.972Z,72.60
2017-10-30T15:51:21.841Z,73.50
2017-10-30T15:53:49.706Z,73.00
2017-10-30T15:56:17.573Z,73.10
2017-10-30T15:58:45.441Z,73.30
2017-10-30T16:01:13.308Z,73.70
2017-10-30T16:03:41.176Z,74.10
2017-10-30T16:06:09.043Z,74.80
2017-10-30T16:08:36.910Z,74.50
2017-10-30T16:11:04.778Z,74.00
2017-10-30T16:13:32.645Z,74.00
2017-10-30T16:16:00.513Z,75.50
2017-10-30T16:18:28.379Z,75.60
2017-10-30T16:20:56.247Z,75.30
2017-10-30T16:23:24.119Z,75.50
2017-10-30T16:25:51.981Z,76.10
2017-10-30T16:28:19.848Z,76.10
2017-10-30T16:30:47.717Z,76.00
2017-10-30T16:33:15.584Z,76.50
2017-10-30T16:35:43.450Z,76.10
2017-10-30T16:38:11.309Z,77.10
2017-10-30T16:40:39.185Z,76.50
2017-10-30T16:43:07.052Z,76.90
2017-10-30T16:45:34.920Z,77.20
2017-10-30T16:48:02.789Z,77.60
2017-10-30T16:50:30.654Z,77.70
2017-10-30T16:52:58.522Z,78.00
2017-10-30T16:55:26.388Z,78.40
2017-10-30T16:57:54.256Z,78.90
2017-10-30T17:00:22.123Z,78.90
2017-10-30T17:02:49.991Z,78.60
2017-10-30T17:05:17.859Z,79.20
2017-10-30T17:07:45.725Z,78.80
2017-10-30T17:10:13.697Z,78.90
2017-10-30T17:12:43.613Z,79.10
2017-10-30T17:15:11.478Z,79.40
2017-10-30T17:17:39.344Z,78.80
2017-10-30T17:20:07.212Z,79.40
2017-10-30T17:22:35.081Z,78.80
2017-10-30T17:25:02.948Z,79.20
2017-10-30T17:27:30.814Z,79.40
2017-10-30T17:29:58.681Z,79.60
2017-10-30T17:32:26.478Z,80.20
2017-10-30T17:34:55.133Z,80.50
2017-10-30T17:37:23.001Z,80.40
2017-10-30T17:39:51.074Z,80.80
2017-10-30T17:42:21.887Z,81.10
2017-10-30T17:44:49.783Z,81.10
2017-10-30T17:47:20.488Z,81.60
2017-10-30T17:49:53.229Z,81.10
2017-10-30T17:52:26.261Z,81.20
2017-10-30T17:54:54.254Z,81.50
2017-10-30T17:57:22.119Z,81.80
2017-10-30T17:59:49.986Z,81.20
2017-10-30T18:02:17.855Z,81.50
2017-10-30T18:04:45.724Z,81.40
2017-10-30T18:07:13.592Z,81.90
2017-10-30T18:09:41.458Z,81.40
2017-10-30T18:12:09.326Z,81.50
2017-10-30T18:14:37.195Z,81.90
2017-10-30T18:17:05.062Z,81.40
2017-10-30T18:19:32.926Z,81.50
2017-10-30T18:22:06.359Z,81.60
2017-10-30T18:24:35.009Z,82.60
2017-10-30T18:27:02.818Z,81.90
2017-10-30T18:29:31.462Z,81.70
2017-10-30T18:31:59.326Z,81.70
2017-10-30T18:34:27.193Z,82.20
2017-10-30T18:36:55.062Z,81.80
2017-10-30T18:39:22.929Z,82.10
2017-10-30T18:41:50.796Z,82.20
2017-10-30T18:44:18.664Z,81.90
2017-10-30T18:46:46.537Z,82.40
2017-10-30T18:49:14.399Z,82.60
2017-10-30T18:51:42.265Z,82.00
2017-10-30T18:54:10.133Z,82.80
2017-10-30T18:56:38.000Z,82.00
2017-10-30T18:59:05.867Z,82.10
2017-10-30T19:01:33.734Z,82.70
2017-10-30T19:04:01.603Z,82.50
2017-10-30T19:06:29.470Z,82.40
2017-10-30T19:08:57.337Z,82.00
2017-10-30T19:11:25.920Z,82.70
2017-10-30T19:13:53.788Z,82.70
2017-10-30T19:16:21.655Z,82.40
2017-10-30T19:18:49.523Z,82.40
2017-10-30T19:21:17.389Z,82.30
2017-10-30T19:23:45.258Z,82.70
2017-10-30T19:26:13.124Z,83.40
2017-10-30T19:28:40.991Z,82.80
2017-10-30T19:31:08.858Z,83.20
2017-10-30T19:33:36.726Z,83.40
2017-10-30T19:36:04.595Z,84.50
2017-10-30T19:38:32.462Z,84.60
2017-10-30T19:41:00.328Z,84.70
2017-10-30T19:43:28.196Z,85.30
2017-10-30T19:45:56.063Z,85.60
2017-10-30T19:48:23.930Z,85.60
2017-10-30T19:50:51.798Z,86.00
2017-10-30T19:53:19.666Z,86.00
2017-10-30T19:58:21.543Z,86.30
2017-10-30T20:00:49.411Z,87.80
2017-10-30T20:03:17.278Z,88.20
2017-10-30T20:05:50.770Z,88.50
2017-10-30T20:08:24.176Z,88.90
2017-10-30T20:11:10.678Z,88.70
2017-10-30T20:13:38.547Z,88.50
2017-10-30T20:16:06.414Z,89.00
2017-10-30T20:18:34.280Z,89.80
2017-10-30T20:21:02.150Z,90.00
2017-10-30T20:23:30.016Z,90.00
2017-10-30T20:25:57.884Z,90.00
2017-10-30T20:28:25.647Z,90.00
2017-10-30T20:30:53.515Z,90.50
2017-10-30T20:33:21.382Z,90.20
2017-10-30T20:35:49.250Z,90.20
2017-10-30T20:38:17.117Z,90.00
2017-10-30T20:40:44.985Z,90.40
2017-10-30T20:43:12.749Z,90.40
2017-10-30T20:45:40.617Z,90.80
2017-10-30T20:48:08.555Z,91.00
2017-10-30T20:50:36.454Z,91.40
2017-10-30T20:53:04.321Z,91.60
2017-10-30T20:55:32.189Z,91.80
2017-10-30T20:58:00.055Z,91.90
2017-10-30T21:00:27.923Z,91.90
2017-10-30T21:02:55.793Z,93.00
2017-10-30T21:05:23.679Z,93.30
2017-10-30T21:07:51.525Z,94.10
2017-10-30T21:10:19.392Z,94.30
2017-10-30T21:12:47.260Z,94.40
2017-10-30T21:15:15.128Z,93.90
2017-10-30T21:17:42.994Z,93.60
2017-10-30T21:20:10.864Z,94.10
2017-10-30T21:22:38.831Z,94.50
2017-10-30T21:25:06.702Z,94.40
2017-10-30T21:27:34.568Z,93.90
2017-10-30T21:30:02.438Z,93.90
2017-10-30T21:32:30.308Z,94.50
2017-10-30T21:34:58.171Z,94.90
2017-10-30T21:37:26.041Z,95.60
2017-10-30T21:39:53.914Z,95.60
2017-10-30T21:42:21.772Z,95.60
2017-10-30T21:44:49.637Z,95.80
2017-10-30T21:47:17.504Z,95.90
2017-10-30T21:49:45.371Z,94.50
2017-10-30T21:52:13.245Z,94.30
2017-10-30T21:54:41.106Z,94.30
2017-10-30T21:59:43.093Z,93.20
2017-10-30T22:02:10.955Z,93.10
2017-10-30T22:04:38.821Z,93.30
2017-10-30T22:07:06.690Z,93.10
2017-10-30T22:09:34.557Z,92.90
2017-10-30T22:12:02.424Z,93.20
2017-10-30T22:14:30.291Z,93.00
2017-10-30T22:16:58.159Z,93.20
2017-10-30T22:19:26.026Z,93.40
2017-10-30T22:21:53.891Z,93.30
2017-10-30T22:24:21.762Z,93.30
2017-10-30T22:26:49.628Z,93.10
2017-10-30T22:29:17.496Z,93.40
2017-10-30T22:31:45.367Z,93.00
2017-10-30T22:34:13.946Z,93.00
2017-10-30T22:36:41.813Z,93.10
2017-10-30T22:39:09.681Z,92.90
2017-10-30T22:41:37.550Z,92.60
2017-10-30T22:44:05.416Z,92.60
2017-10-30T22:46:33.283Z,92.90
2017-10-30T22:49:01.150Z,93.00
2017-10-30T22:51:29.123Z,93.10
2017-10-30T22:53:56.988Z,93.50
2017-10-30T22:56:24.854Z,93.20
2017-10-30T22:58:52.738Z,93.00
2017-10-30T23:01:21.410Z,93.90
2017-10-30T23:03:49.275Z,93.90
2017-10-30T23:06:17.143Z,93.60
2017-10-30T23:08:45.936Z,93.70
2017-10-30T23:11:13.799Z,93.50
2017-10-30T23:13:41.769Z,93.40
2017-10-30T23:16:09.637Z,93.70
2017-10-30T23:18:37.504Z,93.80
2017-10-30T23:21:05.374Z,92.90
2017-10-30T23:23:33.242Z,92.80
2017-10-30T23:26:01.105Z,93.20
2017-10-30T23:28:28.984Z,93.20
2017-10-30T23:30:57.558Z,92.80
2017-10-30T23:33:25.425Z,92.90
2017-10-30T23:35:53.291Z,93.60
2017-10-30T23:38:21.159Z,93.30
2017-10-30T23:40:49.026Z,92.90
2017-10-30T23:43:16.895Z,92.90
2017-10-30T23:45:44.760Z,93.00
2017-10-30T23:48:12.629Z,93.00
2017-10-30T23:50:40.496Z,93.00
2017-10-30T23:53:08.362Z,93.00
2017-10-30T23:55:36.230Z,92.90
2017-10-30T23:58:04.098Z,92.70
